M I D A S
Marine Information and Data Acquisition System
Tripno 715 of the Zeeleeuw from 2004-05-12 06:32:25 to 2004-05-12 16:00:46
Back to CruiseResearch ActivitiesStationsMapUnderway DataData graphs

EquipmentUnitsComments
TimeDGPSUTC
LatitudeDGPSDM.mWGS84
LongitudeDGPSDM.mWGS84
SpeedMeteo Stationm/sRelative wind speed
DirectionMeteo StationdegRelative wind direction
TemperatureMeteo Stationdeg CelciusAir temperature
PressureMeteo StationPaAtmospheric pressure
HumidityMeteo Station%Relative humidity
Missing or incorrect values are displayed as -999
Metereological data collected by the RV Zeeleeuw from 2004-05-12 06:32:25 to 2004-05-12 16:00:46
                                                                                    Next 1000 lines
Time Latitude Longitude Speed Direction Temperature Pressure Humidity
2004-05-12 06:32:33 51°13.598 2°56.098 2 282 9.1 102120 72
2004-05-12 06:32:37 51°13.598 2°56.098 4.7 226 9.1 102120 73
2004-05-12 06:32:42 51°13.598 2°56.097 3.8 258 9.1 102120 73
2004-05-12 06:32:47 51°13.598 2°56.095 5.4 260 9.1 102120 73
2004-05-12 06:32:53 51°13.599 2°56.091 7.2 268 9.1 102120 73
2004-05-12 06:32:57 51°13.6 2°56.088 7.8 268 9.1 102130 73
2004-05-12 06:33:03 51°13.601 2°56.083 5.3 249 9.1 102130 73
2004-05-12 06:33:07 51°13.602 2°56.078 3.6 237 9.1 102130 72
2004-05-12 06:33:14 51°13.604 2°56.07 4.5 247 9.1 102130 72
2004-05-12 06:33:18 51°13.606 2°56.064 3.5 253 9.1 102130 72
2004-05-12 06:33:23 51°13.608 2°56.057 4.8 259 9.1 102130 72
2004-05-12 06:33:28 51°13.609 2°56.049 6.2 258 9.1 102130 72
2004-05-12 06:33:33 51°13.612 2°56.041 3.6 251 9.1 102130 72
2004-05-12 06:33:38 51°13.614 2°56.033 6.1 267 9.1 102130 73
2004-05-12 06:33:43 51°13.616 2°56.024 7.5 228 9.1 102130 73
2004-05-12 06:33:48 51°13.619 2°56.014 5.7 233 9.1 102130 72
2004-05-12 06:33:53 51°13.622 2°56.005 8.5 239 9.1 102130 72
2004-05-12 06:33:58 51°13.625 2°55.995 7.6 242 9.1 102120 73
2004-05-12 06:34:03 51°13.627 2°55.986 6.8 230 9.1 102120 73
2004-05-12 06:34:08 51°13.631 2°55.976 6.1 232 9.1 102130 73
2004-05-12 06:34:13 51°13.634 2°55.966 9.1 223 9.1 102130 73
2004-05-12 06:34:18 51°13.637 2°55.956 8.5 235 9.1 102140 73
2004-05-12 06:34:23 51°13.64 2°55.947 6.9 240 9.1 102140 73
2004-05-12 06:34:28 51°13.644 2°55.937 5 235 9.1 102130 73
2004-05-12 06:34:33 51°13.647 2°55.928 6 226 9.1 102130 73
2004-05-12 06:34:38 51°13.651 2°55.918 5 228 9.1 102130 72
2004-05-12 06:34:43 51°13.654 2°55.909 4.2 226 9.1 102130 72
2004-05-12 06:34:48 51°13.658 2°55.899 7.5 230 9.1 102130 73
2004-05-12 06:34:53 51°13.662 2°55.89 7.3 238 9.1 102130 73
2004-05-12 06:34:58 51°13.666 2°55.881 6.2 246 9.1 102120 73
2004-05-12 06:35:03 51°13.669 2°55.871 6.5 232 9.1 102120 73
2004-05-12 06:35:07 51°13.672 2°55.863 6.5 215 9.1 102130 73
2004-05-12 06:35:14 51°13.677 2°55.85 6.2 218 9.1 102130 73
2004-05-12 06:35:18 51°13.68 2°55.842 6.8 220 9.1 102140 72
2004-05-12 06:35:23 51°13.683 2°55.832 8.6 229 9.1 102140 72
2004-05-12 06:35:27 51°13.686 2°55.824 4.3 257 9.2 102120 73
2004-05-12 06:35:34 51°13.69 2°55.81 7 232 9.2 102120 73
2004-05-12 06:35:38 51°13.692 2°55.802 7.6 237 9.2 102130 72
2004-05-12 06:35:43 51°13.695 2°55.793 6.1 243 9.2 102130 72
2004-05-12 06:35:48 51°13.697 2°55.785 6.1 232 9.1 102130 72
2004-05-12 06:35:53 51°13.698 2°55.779 3.7 259 9.1 102130 72
2004-05-12 06:35:58 51°13.699 2°55.774 6 229 9.1 102130 72
2004-05-12 06:36:02 51°13.7 2°55.772 5.4 263 9.1 102130 72
2004-05-12 06:36:07 51°13.701 2°55.77 6.4 287 9.1 102130 72
2004-05-12 06:36:13 51°13.701 2°55.77 7.5 260 9.1 102130 72
2004-05-12 06:36:18 51°13.701 2°55.771 7.1 280 9.1 102140 72
2004-05-12 06:36:22 51°13.702 2°55.773 6.5 293 9.1 102140 72
2004-05-12 06:36:27 51°13.702 2°55.776 5.5 274 9.1 102130 72
2004-05-12 06:36:33 51°13.703 2°55.779 4.7 296 9.1 102130 72
2004-05-12 06:36:37 51°13.703 2°55.78 7.5 296 9.1 102120 72
2004-05-12 06:36:43 51°13.703 2°55.779 6 301 9.1 102120 72
2004-05-12 06:36:47 51°13.703 2°55.778 6.8 306 9.1 102130 72
2004-05-12 06:36:53 51°13.702 2°55.775 5.1 274 9.1 102130 72
2004-05-12 06:36:58 51°13.701 2°55.772 4 302 9.1 102130 72
2004-05-12 06:37:02 51°13.7 2°55.768 3.9 252 9.1 102130 72
2004-05-12 06:37:08 51°13.699 2°55.762 3.9 260 9.1 102130 72
2004-05-12 06:37:14 51°13.697 2°55.755 4.5 273 9.1 102130 72
2004-05-12 06:37:18 51°13.697 2°55.752 3.8 290 9.1 102130 72
2004-05-12 06:37:23 51°13.696 2°55.749 5.5 298 9.1 102130 72
2004-05-12 06:37:27 51°13.696 2°55.748 6.5 280 9.1 102130 73
2004-05-12 06:37:33 51°13.696 2°55.747 6.6 299 9.1 102130 73
2004-05-12 06:37:38 51°13.696 2°55.748 6.1 313 9.1 102130 73
2004-05-12 06:37:41 51°13.697 2°55.749 7.3 307 9.1 102130 73
2004-05-12 06:37:47 51°13.698 2°55.752 5.9 230 9.1 102130 73
2004-05-12 06:37:54 51°13.701 2°55.755 7.3 323 9.1 102130 73
2004-05-12 06:37:58 51°13.703 2°55.758 6.8 320 9.1 102130 73
2004-05-12 06:38:03 51°13.705 2°55.76 6.1 319 9.1 102130 73
2004-05-12 06:38:07 51°13.706 2°55.762 5.8 338 9.1 102130 72
2004-05-12 06:38:13 51°13.708 2°55.764 4.6 310 9.1 102130 72
2004-05-12 06:38:17 51°13.708 2°55.765 4.7 318 9.1 102130 72
2004-05-12 06:38:23 51°13.707 2°55.765 5.4 324 9.1 102130 72
2004-05-12 06:38:27 51°13.707 2°55.765 5.8 324 9.1 102120 72
2004-05-12 06:38:33 51°13.705 2°55.763 5.6 327 9.1 102120 72
2004-05-12 06:38:37 51°13.703 2°55.762 3.1 306 9.1 102120 72
2004-05-12 06:38:43 51°13.7 2°55.76 4.9 300 9.1 102120 72
2004-05-12 06:38:47 51°13.698 2°55.758 4.4 41 9.1 102120 72
2004-05-12 06:38:53 51°13.695 2°55.755 4.1 310 9.1 102120 72
2004-05-12 06:38:58 51°13.692 2°55.752 4.4 299 9.1 102120 72
2004-05-12 06:39:03 51°13.69 2°55.75 6.2 227 9.1 102120 72
2004-05-12 06:39:07 51°13.689 2°55.749 4.9 330 9.1 102130 72
2004-05-12 06:39:13 51°13.69 2°55.749 6.3 357 9.1 102130 72
2004-05-12 06:39:18 51°13.692 2°55.75 5.9 349 9.1 102130 72
2004-05-12 06:39:23 51°13.695 2°55.751 6.5 7 9.1 102130 72
2004-05-12 06:39:28 51°13.7 2°55.751 7.3 10 9.1 102130 72
2004-05-12 06:39:34 51°13.707 2°55.749 7.1 22 9.1 102130 72
2004-05-12 06:39:38 51°13.713 2°55.747 7.8 29 9.1 102120 73
2004-05-12 06:39:43 51°13.72 2°55.741 7.6 26 9.1 102120 73
2004-05-12 06:39:47 51°13.726 2°55.737 6.1 13 9.1 102110 72
2004-05-12 06:39:53 51°13.733 2°55.73 5.7 38 9.1 102110 72
2004-05-12 06:39:58 51°13.739 2°55.724 7.8 30 9.1 102110 72
2004-05-12 06:40:03 51°13.746 2°55.718 7.5 32 9.1 102110 72
2004-05-12 06:40:07 51°13.751 2°55.712 8.2 22 9.1 102120 73
2004-05-12 06:40:13 51°13.759 2°55.704 6.4 23 9.1 102120 73
2004-05-12 06:40:18 51°13.766 2°55.697 8.3 14 9.1 102120 73
2004-05-12 06:40:23 51°13.773 2°55.69 7.6 31 9.1 102120 73
2004-05-12 06:40:27 51°13.779 2°55.685 7.1 32 9.1 102120 73
2004-05-12 06:40:33 51°13.788 2°55.676 7.1 30 9.1 102120 73
2004-05-12 06:40:38 51°13.796 2°55.668 8.9 43 9.1 102110 73
2004-05-12 06:40:43 51°13.803 2°55.66 8.8 38 9.1 102110 73
2004-05-12 06:40:48 51°13.811 2°55.652 8.7 39 9.1 102110 72
2004-05-12 06:40:53 51°13.818 2°55.644 8.5 32 9.1 102110 72
2004-05-12 06:40:58 51°13.826 2°55.636 10.5 24 9.1 102110 72
2004-05-12 06:41:03 51°13.834 2°55.628 9.8 25 9.1 102110 72
2004-05-12 06:41:07 51°13.84 2°55.622 9.4 33 9.1 102110 72
2004-05-12 06:41:13 51°13.851 2°55.613 7.6 32 9.1 102110 72
2004-05-12 06:41:17 51°13.857 2°55.607 8.1 35 9.1 102110 73
2004-05-12 06:41:23 51°13.868 2°55.598 10 41 9.1 102110 73
2004-05-12 06:41:28 51°13.877 2°55.591 10.3 40 9.1 102100 73
2004-05-12 06:41:33 51°13.886 2°55.584 9.3 24 9.1 102100 73
2004-05-12 06:41:38 51°13.895 2°55.577 8.2 35 9.1 102100 73
2004-05-12 06:41:43 51°13.904 2°55.569 8 31 9.1 102100 73
2004-05-12 06:41:48 51°13.914 2°55.562 8.8 29 9 102110 73
2004-05-12 06:41:53 51°13.923 2°55.555 9.2 27 9 102110 73
2004-05-12 06:41:58 51°13.933 2°55.549 9.2 26 9 102100 73
2004-05-12 06:42:03 51°13.942 2°55.542 9.5 33 9 102100 73
2004-05-12 06:42:07 51°13.95 2°55.537 9 26 9 102100 73
2004-05-12 06:42:13 51°13.961 2°55.529 10.1 17 9 102100 73
2004-05-12 06:42:17 51°13.969 2°55.524 8.8 29 9 102120 73
2004-05-12 06:42:23 51°13.98 2°55.516 9.1 20 9 102120 73
2004-05-12 06:42:27 51°13.988 2°55.51 10 31 9 102100 73
2004-05-12 06:42:33 51°13.999 2°55.502 9.8 24 9 102100 73
2004-05-12 06:42:37 51°14.007 2°55.496 9.5 30 9 102100 73
2004-05-12 06:42:43 51°14.018 2°55.488 8.1 31 9 102100 73
2004-05-12 06:42:47 51°14.025 2°55.482 9 25 9 102100 73
2004-05-12 06:42:53 51°14.037 2°55.474 9.2 31 9 102100 73
2004-05-12 06:42:58 51°14.047 2°55.468 8.7 26 9 102100 73
2004-05-12 06:43:03 51°14.057 2°55.461 9.2 26 9 102100 73
2004-05-12 06:43:07 51°14.065 2°55.456 9.1 28 9 102110 73
2004-05-12 06:43:13 51°14.078 2°55.448 9.6 28 9 102110 73
2004-05-12 06:43:17 51°14.086 2°55.443 9.5 29 9 102100 73
2004-05-12 06:43:23 51°14.099 2°55.436 10.3 18 9 102100 73
2004-05-12 06:43:27 51°14.108 2°55.431 9.6 28 9 102100 73
2004-05-12 06:43:33 51°14.122 2°55.422 8.7 25 9 102100 73
2004-05-12 06:43:38 51°14.134 2°55.416 9.2 20 9 102100 73
2004-05-12 06:43:43 51°14.145 2°55.409 9.5 20 9 102100 73
2004-05-12 06:43:48 51°14.157 2°55.401 9.9 18 9 102090 73
2004-05-12 06:43:53 51°14.169 2°55.393 9.8 28 9 102090 73
2004-05-12 06:43:58 51°14.181 2°55.384 9.8 26 9 102100 74
2004-05-12 06:44:03 51°14.193 2°55.373 9.5 35 9 102100 74
2004-05-12 06:44:07 51°14.202 2°55.364 10 44 9 102100 74
2004-05-12 06:44:13 51°14.216 2°55.348 11.1 44 9 102100 74
2004-05-12 06:44:18 51°14.227 2°55.334 9.8 40 9 102100 74
2004-05-12 06:44:23 51°14.238 2°55.318 9.7 39 9 102100 74
2004-05-12 06:44:27 51°14.247 2°55.304 10.3 39 9 102090 74
2004-05-12 06:44:33 51°14.26 2°55.283 11.2 44 9 102090 74
2004-05-12 06:44:38 51°14.27 2°55.264 11.5 41 9 102090 75
2004-05-12 06:44:43 51°14.281 2°55.244 9.7 37 9 102090 75
2004-05-12 06:44:46 51°14.287 2°55.232 11.9 44 9 102070 75
2004-05-12 06:44:53 51°14.301 2°55.202 11.2 26 9 102070 75
2004-05-12 06:44:58 51°14.311 2°55.18 10.4 42 9 102080 75
2004-05-12 06:45:03 51°14.321 2°55.159 9.3 25 9 102080 75
2004-05-12 06:45:07 51°14.329 2°55.142 11.4 31 9.1 102070 75
2004-05-12 06:45:13 51°14.341 2°55.116 11.6 44 9.1 102070 75
2004-05-12 06:45:17 51°14.349 2°55.098 11.8 44 9.1 102070 76
2004-05-12 06:45:23 51°14.36 2°55.07 11.6 45 9.1 102070 76
2004-05-12 06:45:28 51°14.368 2°55.046 13.3 49 9.1 102080 76
2004-05-12 06:45:33 51°14.378 2°55.021 11.9 52 9.1 102080 76
2004-05-12 06:45:37 51°14.385 2°55.002 13 51 9.1 102080 75
2004-05-12 06:45:42 51°14.396 2°54.979 12.6 37 9.1 102080 75
2004-05-12 06:45:47 51°14.407 2°54.957 12.9 39 9.1 102060 75
2004-05-12 06:45:53 51°14.421 2°54.93 11.8 33 9.1 102060 75
2004-05-12 06:45:57 51°14.43 2°54.912 13.1 36 9.1 102050 75
2004-05-12 06:46:03 51°14.443 2°54.885 12 41 9.1 102050 75
2004-05-12 06:46:07 51°14.452 2°54.867 12 42 9.1 102050 76
2004-05-12 06:46:13 51°14.465 2°54.84 11.2 39 9.1 102050 76
2004-05-12 06:46:17 51°14.474 2°54.822 12.4 38 9.1 102100 76
2004-05-12 06:46:23 51°14.487 2°54.795 12.7 37 9.1 102100 76
2004-05-12 06:46:27 51°14.496 2°54.777 13.9 40 9.1 102060 76
2004-05-12 06:46:33 51°14.508 2°54.75 12.7 42 9.1 102060 76
2004-05-12 06:46:38 51°14.519 2°54.727 11.9 40 9.1 102100 76
2004-05-12 06:46:40 51°14.523 2°54.719 12.1 42 9.1 102100 76
2004-05-12 06:46:47 51°14.538 2°54.687 13.6 39 9.1 102060 76
2004-05-12 06:46:53 51°14.551 2°54.66 12.7 41 9.1 102060 76
2004-05-12 06:46:57 51°14.559 2°54.642 12.3 41 9.1 102060 75
2004-05-12 06:47:03 51°14.572 2°54.615 12.9 45 9.1 102060 75
2004-05-12 06:47:08 51°14.583 2°54.593 12.4 44 9.1 102060 76
2004-05-12 06:47:13 51°14.594 2°54.57 12.8 40 9.1 102060 76
2004-05-12 06:47:18 51°14.604 2°54.548 12.3 42 9.1 102060 75
2004-05-12 06:47:23 51°14.615 2°54.525 11.6 43 9.1 102060 75
2004-05-12 06:47:27 51°14.624 2°54.507 11.8 43 9.1 102060 76
2004-05-12 06:47:33 51°14.637 2°54.481 12.6 40 9.1 102060 76
2004-05-12 06:47:38 51°14.648 2°54.459 12.7 41 9.1 102060 76
2004-05-12 06:47:43 51°14.659 2°54.436 12.9 38 9.1 102060 76
2004-05-12 06:47:47 51°14.668 2°54.418 13.2 43 9.1 102060 76
2004-05-12 06:47:53 51°14.681 2°54.39 12.7 49 9.1 102060 76
2004-05-12 06:47:57 51°14.688 2°54.371 12.5 51 9.1 102060 76
2004-05-12 06:48:02 51°14.697 2°54.347 12.7 51 9.1 102060 76
2004-05-12 06:48:07 51°14.706 2°54.322 14 56 9.1 102060 76
2004-05-12 06:48:13 51°14.716 2°54.292 13.5 55 9.1 102060 76
2004-05-12 06:48:17 51°14.723 2°54.272 13.6 45 9.1 102100 76
2004-05-12 06:48:22 51°14.731 2°54.248 13.2 56 9.1 102100 76
2004-05-12 06:48:27 51°14.739 2°54.222 14.3 56 9.1 102060 77
2004-05-12 06:48:33 51°14.749 2°54.193 14.6 61 9.1 102060 77
2004-05-12 06:48:37 51°14.756 2°54.173 14.2 58 9.1 102050 77
2004-05-12 06:48:43 51°14.766 2°54.143 12.5 56 9.1 102050 77
2004-05-12 06:48:47 51°14.772 2°54.123 12.5 51 9.1 102060 77
2004-05-12 06:48:53 51°14.782 2°54.093 13.3 45 9.1 102060 77
2004-05-12 06:48:58 51°14.791 2°54.068 13.4 48 9.1 102050 76
2004-05-12 06:49:03 51°14.799 2°54.044 13.4 51 9.1 102050 76
2004-05-12 06:49:07 51°14.805 2°54.024 13.5 50 9.1 102060 77
2004-05-12 06:49:13 51°14.815 2°53.993 13.1 52 9.1 102060 77
2004-05-12 06:49:17 51°14.821 2°53.973 13.8 50 9.1 102060 77
2004-05-12 06:49:23 51°14.83 2°53.943 13.8 52 9.1 102060 77
2004-05-12 06:49:28 51°14.837 2°53.918 13.1 48 9.1 102050 76
2004-05-12 06:49:33 51°14.845 2°53.892 13.4 48 9.1 102050 76
2004-05-12 06:49:38 51°14.852 2°53.867 12.4 46 9.1 102050 76
2004-05-12 06:49:43 51°14.859 2°53.841 12.9 45 9.1 102050 76
2004-05-12 06:49:47 51°14.865 2°53.82 14.5 47 9.1 102050 77
2004-05-12 06:49:53 51°14.874 2°53.788 12.9 50 9.1 102050 77
2004-05-12 06:49:58 51°14.88 2°53.762 13 50 9.1 102060 77
2004-05-12 06:50:03 51°14.886 2°53.736 13.1 52 9.1 102060 77
2004-05-12 06:50:07 51°14.891 2°53.714 13.3 57 9.1 102060 77
2004-05-12 06:50:13 51°14.9 2°53.682 13.3 48 9.1 102060 77
2004-05-12 06:50:17 51°14.905 2°53.661 12.6 44 9.1 102050 77
2004-05-12 06:50:23 51°14.913 2°53.63 13 40 9.1 102050 77
2004-05-12 06:50:27 51°14.918 2°53.609 13.3 47 9.1 102050 77
2004-05-12 06:50:33 51°14.926 2°53.577 12.9 46 9.1 102050 77
2004-05-12 06:50:37 51°14.931 2°53.556 12.9 52 9.1 102060 77
2004-05-12 06:50:43 51°14.939 2°53.524 13.6 50 9.1 102060 77
2004-05-12 06:50:47 51°14.945 2°53.503 13.4 51 9.1 102090 77
2004-05-12 06:50:53 51°14.953 2°53.472 13.9 45 9.1 102090 77
2004-05-12 06:50:58 51°14.959 2°53.446 13.4 48 9.1 102090 77
2004-05-12 06:51:02 51°14.964 2°53.425 12.8 52 9.1 102090 77
2004-05-12 06:51:05 51°14.968 2°53.408 14.2 51 9.1 102090 77
2004-05-12 06:51:13 51°14.978 2°53.367 12.6 53 9.1 102090 77
2004-05-12 06:51:18 51°14.985 2°53.34 14 57 9.1 102060 77
2004-05-12 06:51:23 51°14.991 2°53.314 14.5 57 9.1 102060 77
2004-05-12 06:51:27 51°14.997 2°53.293 14 53 9.1 102070 77
2004-05-12 06:51:33 51°15.005 2°53.262 13.5 54 9.1 102070 77
2004-05-12 06:51:37 51°15.01 2°53.241 15.8 55 9.1 102060 78
2004-05-12 06:51:42 51°15.016 2°53.215 14.1 58 9.1 102060 78
2004-05-12 06:51:48 51°15.024 2°53.184 13.6 53 9.1 102060 77
2004-05-12 06:51:53 51°15.031 2°53.158 13.5 58 9.1 102060 77
2004-05-12 06:51:57 51°15.037 2°53.137 14 55 9.1 102070 77
2004-05-12 06:52:02 51°15.043 2°53.111 13.2 66 9.1 102070 77
2004-05-12 06:52:08 51°15.051 2°53.079 13.9 60 9.1 102060 77
2004-05-12 06:52:13 51°15.058 2°53.052 14.8 54 9.1 102060 77
2004-05-12 06:52:17 51°15.063 2°53.031 15.5 58 9.1 102060 77
2004-05-12 06:52:22 51°15.069 2°53.005 14 54 9.1 102060 77
2004-05-12 06:52:27 51°15.075 2°52.979 14.6 54 9.1 102060 76
2004-05-12 06:52:33 51°15.083 2°52.947 15.4 55 9.1 102060 76
2004-05-12 06:52:38 51°15.09 2°52.921 13.4 57 9.1 102060 76
2004-05-12 06:52:42 51°15.095 2°52.9 15.8 52 9.1 102060 76
2004-05-12 06:52:47 51°15.101 2°52.874 14.7 56 9.1 102050 76
2004-05-12 06:52:53 51°15.109 2°52.842 12.5 56 9.1 102050 76
2004-05-12 06:52:57 51°15.114 2°52.821 13.4 58 9.1 102050 76
2004-05-12 06:53:03 51°15.122 2°52.79 13.5 56 9.1 102050 76
2004-05-12 06:53:07 51°15.128 2°52.769 13.9 60 9.1 102060 76
2004-05-12 06:53:13 51°15.136 2°52.736 13.7 51 9.1 102060 76
2004-05-12 06:53:18 51°15.143 2°52.71 14.6 52 9.1 102060 76
2004-05-12 06:53:23 51°15.149 2°52.683 13.9 54 9.1 102060 76
2004-05-12 06:53:27 51°15.154 2°52.662 15.2 50 9.1 102060 77
2004-05-12 06:53:33 51°15.162 2°52.63 15.2 51 9.1 102060 77
2004-05-12 06:53:37 51°15.167 2°52.609 15.4 53 9.1 102060 77
2004-05-12 06:53:43 51°15.175 2°52.577 14.5 50 9.1 102060 77
2004-05-12 06:53:47 51°15.18 2°52.556 13.2 56 9.1 102050 77
2004-05-12 06:53:53 51°15.188 2°52.524 13.1 59 9.1 102050 77
2004-05-12 06:53:57 51°15.193 2°52.503 14.5 61 9.1 102060 76
2004-05-12 06:54:02 51°15.199 2°52.476 12.6 59 9.1 102060 76
2004-05-12 06:54:07 51°15.204 2°52.449 13.5 57 9.1 102060 75
2004-05-12 06:54:13 51°15.21 2°52.416 12 60 9.1 102060 75
2004-05-12 06:54:17 51°15.214 2°52.394 11.5 60 9.1 102060 75
2004-05-12 06:54:23 51°15.22 2°52.361 13.2 62 9.1 102060 75
2004-05-12 06:54:27 51°15.224 2°52.339 14.4 58 9.1 102060 76
2004-05-12 06:54:33 51°15.23 2°52.306 13.8 50 9.1 102060 76
2004-05-12 06:54:37 51°15.234 2°52.284 14.8 55 9.1 102070 75
2004-05-12 06:54:42 51°15.239 2°52.257 14.4 54 9.1 102070 75
2004-05-12 06:54:47 51°15.244 2°52.23 14.4 52 9.1 102070 76
2004-05-12 06:54:53 51°15.25 2°52.197 14 52 9.1 102070 76
2004-05-12 06:54:57 51°15.253 2°52.175 15 58 9.1 102070 76
2004-05-12 06:55:03 51°15.26 2°52.142 14.4 57 9.1 102070 76
2004-05-12 06:55:07 51°15.264 2°52.12 14.4 61 9.1 102060 75
2004-05-12 06:55:13 51°15.27 2°52.087 13.5 47 9.1 102060 75
2004-05-12 06:55:18 51°15.275 2°52.06 13.6 52 9 102070 74
2004-05-12 06:55:20 51°15.277 2°52.049 13.4 53 9 102070 74
2004-05-12 06:55:27 51°15.284 2°52.01 13.9 58 9 102060 74
2004-05-12 06:55:33 51°15.29 2°51.978 12.4 55 9 102060 74
2004-05-12 06:55:37 51°15.293 2°51.956 12.3 54 9 102060 75
2004-05-12 06:55:43 51°15.298 2°51.923 13 60 9 102060 75
2004-05-12 06:55:48 51°15.3 2°51.895 13 51 9 102070 75
2004-05-12 06:55:53 51°15.303 2°51.867 13.2 55 9 102070 75
2004-05-12 06:55:58 51°15.305 2°51.839 12.4 64 9.1 102070 76
2004-05-12 06:56:03 51°15.308 2°51.811 11.3 60 9.1 102070 76
2004-05-12 06:56:07 51°15.309 2°51.788 11.6 60 9 102070 76
2004-05-12 06:56:13 51°15.312 2°51.754 12.3 58 9 102070 76
2004-05-12 06:56:18 51°15.313 2°51.726 10.6 60 9 102070 75
2004-05-12 06:56:23 51°15.315 2°51.698 11.3 62 9 102070 75
2004-05-12 06:56:27 51°15.315 2°51.675 11 71 9 102070 74
2004-05-12 06:56:33 51°15.315 2°51.642 10.8 70 9 102070 74
2004-05-12 06:56:37 51°15.314 2°51.619 9.3 66 9 102080 74
2004-05-12 06:56:43 51°15.312 2°51.585 7.8 72 9 102080 74
2004-05-12 06:56:47 51°15.31 2°51.563 8.5 70 9 102080 74
2004-05-12 06:56:53 51°15.306 2°51.53 8.7 59 9 102080 74
2004-05-12 06:56:57 51°15.303 2°51.508 9.5 65 9 102080 75
2004-05-12 06:57:03 51°15.3 2°51.475 10.5 70 9 102080 75
2004-05-12 06:57:07 51°15.297 2°51.453 10.9 70 9 102090 75
2004-05-12 06:57:13 51°15.294 2°51.419 8.9 76 9 102090 75
2004-05-12 06:57:17 51°15.289 2°51.398 8.8 77 9 102090 75
2004-05-12 06:57:23 51°15.287 2°51.364 8 76 9 102090 75
2004-05-12 06:57:26 51°15.283 2°51.348 8.8 80 9 102090 75
2004-05-12 06:57:33 51°15.28 2°51.308 7.9 61 9 102090 75
2004-05-12 06:57:38 51°15.276 2°51.28 10.4 69 9 102080 75
2004-05-12 06:57:42 51°15.274 2°51.258 9.9 68 9 102080 75
2004-05-12 06:57:45 51°15.271 2°51.241 11.5 65 9 102080 75
2004-05-12 06:57:53 51°15.265 2°51.197 11.1 78 9 102080 75
2004-05-12 06:57:58 51°15.263 2°51.169 9.5 67 9 102080 75
2004-05-12 06:58:03 51°15.259 2°51.141 9.4 77 9 102080 75
2004-05-12 06:58:07 51°15.258 2°51.119 10.2 65 9 102090 75
2004-05-12 06:58:13 51°15.253 2°51.085 9.6 77 9 102090 75
2004-05-12 06:58:17 51°15.252 2°51.063 8.3 70 9 102090 75
2004-05-12 06:58:23 51°15.247 2°51.029 9.5   9 102090 75
2004-05-12 06:58:27 51°15.246 2°51.007 8.9 66 9 102090 75
2004-05-12 06:58:33 51°15.241 2°50.974 10.5 80 9 102090 75
2004-05-12 06:58:37 51°15.24 2°50.951 8.9 74 9.1 102090 76
2004-05-12 06:58:43 51°15.235 2°50.918 9.8 79 9.1 102090 76
2004-05-12 06:58:47 51°15.234 2°50.896 8.6 74 9 102090 75
2004-05-12 06:58:53 51°15.229 2°50.863 9 75 9 102090 75
2004-05-12 06:58:58 51°15.227 2°50.835 8.4 78 9 102090 74
2004-05-12 06:59:02 51°15.223 2°50.813 9.7 81 9 102090 74
2004-05-12 06:59:08 51°15.221 2°50.779 7 71 9 102090 75
2004-05-12 06:59:13 51°15.217 2°50.751 7.5 76 9 102090 75
2004-05-12 06:59:18 51°15.215 2°50.723 7.3 76 9 102100 75
2004-05-12 06:59:23 51°15.211 2°50.696 9.2 80 9 102100 75
2004-05-12 06:59:28 51°15.209 2°50.667 9.2 80 9 102090 75
2004-05-12 06:59:33 51°15.205 2°50.64 7.5 75 9 102090 75
2004-05-12 06:59:37 51°15.203 2°50.617 9 77 9 102100 75
2004-05-12 06:59:42 51°15.2 2°50.589 7.6 78 9 102100 75
2004-05-12 06:59:47 51°15.198 2°50.561 7.5 79 9 102100 74
2004-05-12 06:59:53 51°15.195 2°50.528 8.3 80 9 102100 74
2004-05-12 06:59:57 51°15.193 2°50.505 9.2 80 9 102100 74
2004-05-12 07:00:03 51°15.19 2°50.472 8.6 82 9 102100 74
2004-05-12 07:00:05 51°15.188 2°50.461 8 83 9 102090 74
2004-05-12 07:00:13 51°15.184 2°50.416 9 83 9 102090 74
2004-05-12 07:00:18 51°15.18 2°50.388 9.8 85 9 102100 74
2004-05-12 07:00:22 51°15.179 2°50.366 6.6 79 9 102100 74
2004-05-12 07:00:28 51°15.174 2°50.333 8.1 69 9 102100 74
2004-05-12 07:00:33 51°15.172 2°50.304 7.6 74 9 102100 74
2004-05-12 07:00:37 51°15.169 2°50.282 9.8 78 9 102100 74
2004-05-12 07:00:43 51°15.167 2°50.249 10.5 83 9 102100 74
2004-05-12 07:00:48 51°15.163 2°50.221 11.2 83 9 102100 75
2004-05-12 07:00:53 51°15.161 2°50.194 9 86 9 102100 75
2004-05-12 07:00:57 51°15.158 2°50.172 9.5 83 9 102100 75
2004-05-12 07:01:03 51°15.155 2°50.138 8.9 82 9 102100 75
2004-05-12 07:01:07 51°15.153 2°50.116 9.2 84 9 102090 75
2004-05-12 07:01:13 51°15.148 2°50.083 9.8 83 9 102090 75
2004-05-12 07:01:17 51°15.147 2°50.06 8.9 80 9 102090 75
2004-05-12 07:01:23 51°15.143 2°50.027 10 83 9 102090 75
2004-05-12 07:01:27 51°15.141 2°50.005 9.9 80 9 102100 75
2004-05-12 07:01:33 51°15.138 2°49.971 9 68 9 102100 75
2004-05-12 07:01:37 51°15.135 2°49.949 9.1 78 9 102120 75
2004-05-12 07:01:43 51°15.133 2°49.915 8.4 77 9 102120 75
2004-05-12 07:01:45 51°15.131 2°49.904 9 78 9 102120 75
2004-05-12 07:01:53 51°15.127 2°49.859 9.2 66 9 102120 75
2004-05-12 07:01:57 51°15.125 2°49.837 9.3 81 9.1 102120 75
2004-05-12 07:02:02 51°15.122 2°49.809 8.9 80 9.1 102120 75
2004-05-12 07:02:06 51°15.12 2°49.787 9.4 79 9.1 102110 75
2004-05-12 07:02:13 51°15.118 2°49.748 8.5 67 9.1 102110 75
2004-05-12 07:02:18 51°15.114 2°49.72 8.7 76 9.1 102120 75
2004-05-12 07:02:23 51°15.112 2°49.692 8.3 79 9.1 102120 75
2004-05-12 07:02:27 51°15.109 2°49.67 9 75 9 102110 75
2004-05-12 07:02:33 51°15.106 2°49.637 8 77 9 102110 75
2004-05-12 07:02:38 51°15.104 2°49.608 9.1 78 9.1 102120 75
2004-05-12 07:02:43 51°15.1 2°49.581 8.2 77 9.1 102120 75
2004-05-12 07:02:48 51°15.099 2°49.552 8 73 9 102120 74
2004-05-12 07:02:53 51°15.096 2°49.524 7.1 78 9 102120 74
2004-05-12 07:02:57 51°15.094 2°49.502 8 79 9 102120 74
2004-05-12 07:03:03 51°15.09 2°49.469 8.2 71 9 102120 74
2004-05-12 07:03:06 51°15.089 2°49.452 8.7 62 9.1 102120 75
2004-05-12 07:03:13 51°15.085 2°49.412 8.4 67 9.1 102120 75
2004-05-12 07:03:17 51°15.084 2°49.39 8.7 60 9.1 102120 75
2004-05-12 07:03:23 51°15.079 2°49.357 10.3 66 9.1 102120 75
2004-05-12 07:03:27 51°15.078 2°49.335 8.4 73 9.1 102120 75
2004-05-12 07:03:31 51°15.075 2°49.313 9 69 9.1 102120 75
2004-05-12 07:03:37 51°15.072 2°49.28 10.1 66 9.1 102130 75
2004-05-12 07:03:43 51°15.069 2°49.246 8.9 68 9.1 102130 75
2004-05-12 07:03:47 51°15.066 2°49.224 9 71 9.1 102120 75
2004-05-12 07:03:53 51°15.063 2°49.19 8.7 69 9.1 102120 75
2004-05-12 07:03:57 51°15.061 2°49.168 8.8 57 9.1 102120 75
2004-05-12 07:04:03 51°15.057 2°49.134 9.4 61 9.1 102120 75
2004-05-12 07:04:07 51°15.057 2°49.111 10.7 65 9.1 102120 75
2004-05-12 07:04:13 51°15.052 2°49.078 9.9 71 9.1 102120 75
2004-05-12 07:04:18 51°15.051 2°49.05 8.4 71 9.1 102120 75
2004-05-12 07:04:21 51°15.048 2°49.034 9.2 71 9.1 102120 75
2004-05-12 07:04:27 51°15.046 2°48.999 7.6 71 9.1 102130 76
2004-05-12 07:04:33 51°15.042 2°48.966 7.7 71 9.1 102130 76
2004-05-12 07:04:37 51°15.04 2°48.944 7.9 72 9.1 102110 75
2004-05-12 07:04:42 51°15.038 2°48.916 6.9 70 9.1 102110 75
2004-05-12 07:04:47 51°15.034 2°48.888 7.7 70 9.1 102110 75
2004-05-12 07:04:53 51°15.033 2°48.854 7.6 64 9.1 102110 75
2004-05-12 07:04:58 51°15.027 2°48.827 10.1 69 9.1 102130 74
2004-05-12 07:05:03 51°15.027 2°48.798 9.2 65 9.1 102130 74
2004-05-12 07:05:06 51°15.024 2°48.782 8.9 73 9.1 102130 74
2004-05-12 07:05:13 51°15.021 2°48.743 8.4 68 9.1 102130 74
2004-05-12 07:05:18 51°15.018 2°48.714 8.8 81 9.1 102130 75
2004-05-12 07:05:23 51°15.015 2°48.687 7.1 74 9.1 102130 75
2004-05-12 07:05:27 51°15.013 2°48.665 8.3 74 9.1 102120 74
2004-05-12 07:05:33 51°15.01 2°48.631 7.1 73 9.1 102120 74
2004-05-12 07:05:37 51°15.009 2°48.608 7.6 66 9.1 102120 74
2004-05-12 07:05:43 51°15.006 2°48.575 8.8 64 9.1 102120 74
2004-05-12 07:05:48 51°15.003 2°48.546 8.8 62 9.1 102120 74
2004-05-12 07:05:53 51°15 2°48.518 8.2 68 9.1 102120 74
2004-05-12 07:05:58 51°14.997 2°48.49 8.1 65 9.1 102120 74
2004-05-12 07:06:03 51°14.995 2°48.462 9.2 65 9.1 102120 74
2004-05-12 07:06:06 51°14.993 2°48.445 8.2 71 9 102130 74
2004-05-12 07:06:13 51°14.99 2°48.406 8.3 62 9 102130 74
2004-05-12 07:06:17 51°14.986 2°48.384 9 68 9 102120 74
2004-05-12 07:06:23 51°14.984 2°48.35 8.2 71 9 102120 74
2004-05-12 07:06:27 51°14.981 2°48.328 9.9 68 9 102120 74
2004-05-12 07:06:33 51°14.977 2°48.294 9.1 70 9 102120 74
2004-05-12 07:06:37 51°14.976 2°48.273 8.9 74 9 102120 74
2004-05-12 07:06:43 51°14.971 2°48.239 9.4 79 9 102120 74
2004-05-12 07:06:48 51°14.969 2°48.211 8.9 69 9 102120 74
2004-05-12 07:06:53 51°14.966 2°48.184 10.2 64 9 102120 74
2004-05-12 07:06:58 51°14.963 2°48.156 10 74 9 102120 74
2004-05-12 07:07:03 51°14.96 2°48.129 10.1 65 9 102120 74
2004-05-12 07:07:05 51°14.959 2°48.118 11.1 75 9 102110 75
2004-05-12 07:07:13 51°14.956 2°48.074 8.6 71 9 102110 75
2004-05-12 07:07:17 51°14.954 2°48.051 8.4 73 9.1 102110 75
2004-05-12 07:07:23 51°14.951 2°48.018 9.2 67 9.1 102110 75
2004-05-12 07:07:27 51°14.947 2°47.997 9.9 71 9 102110 75
2004-05-12 07:07:33 51°14.945 2°47.963 8.6 68 9 102110 75
2004-05-12 07:07:36 51°14.943 2°47.947 8.8 68 9 102110 74
2004-05-12 07:07:43 51°14.94 2°47.908 8.2 68 9 102110 74
2004-05-12 07:07:45 51°14.937 2°47.897 8.1 76 9 102120 74
2004-05-12 07:07:53 51°14.934 2°47.853 8.4 74 9 102120 74
2004-05-12 07:07:58 51°14.931 2°47.825 7.6 71 9 102110 74
2004-05-12 07:08:01 51°14.929 2°47.808 9.1 58 9 102110 74
2004-05-12 07:08:07 51°14.926 2°47.775 8.9 65 9 102120 74
2004-05-12 07:08:13 51°14.925 2°47.741 9.4 72 9 102120 74
2004-05-12 07:08:17 51°14.921 2°47.719 9.3 61 9 102120 74
2004-05-12 07:08:23 51°14.92 2°47.685 9.4 65 9 102120 74
2004-05-12 07:08:27 51°14.916 2°47.664 9.6 63 9 102120 74
2004-05-12 07:08:33 51°14.914 2°47.63 8.8 66 9 102120 74
2004-05-12 07:08:37 51°14.911 2°47.608 8.9 66 9 102120 74
2004-05-12 07:08:43 51°14.908 2°47.575 9 63 9 102120 74
2004-05-12 07:08:46 51°14.906 2°47.558 9.6 62 9 102120 74
2004-05-12 07:08:53 51°14.903 2°47.519 8.8 60 9 102120 74
2004-05-12 07:08:57 51°14.9 2°47.498 9 65 9 102120 74
2004-05-12 07:09:03 51°14.897 2°47.464 8.5 71 9 102120 74
2004-05-12 07:09:08 51°14.893 2°47.437 9 67 9 102120 74
2004-05-12 07:09:13 51°14.892 2°47.409 8 69 9 102120 74
2004-05-12 07:09:18 51°14.888 2°47.382 7.6 74 9 102120 74
2004-05-12 07:09:23 51°14.886 2°47.354 7.7 69 9 102120 74
2004-05-12 07:09:27 51°14.885 2°47.332 8.4 65 9 102120 74
2004-05-12 07:09:33 51°14.881 2°47.299 7.8 63 9 102120 74
2004-05-12 07:09:37 51°14.879 2°47.277 8.9 68 9 102110 74
2004-05-12 07:09:43 51°14.875 2°47.244 8.1 69 9 102110 74
2004-05-12 07:09:47 51°14.874 2°47.222 8 63 9 102120 74
2004-05-12 07:09:51 51°14.871 2°47.2 8.4 62 9 102120 74
2004-05-12 07:09:57 51°14.868 2°47.167 8.3 67 9 102120 75
2004-05-12 07:10:03 51°14.864 2°47.134 9 58 9 102120 75
2004-05-12 07:10:07 51°14.862 2°47.112 9.8 64 9 102120 75
2004-05-12 07:10:13 51°14.858 2°47.079 8.7 62 9 102120 75
2004-05-12 07:10:17 51°14.856 2°47.057 9.9 61 9 102120 75
2004-05-12 07:10:23 51°14.853 2°47.024 9.4 66 9 102120 75
2004-05-12 07:10:27 51°14.851 2°47.002 7.9 74 9 102120 75
2004-05-12 07:10:33 51°14.847 2°46.969 8.6 76 9 102120 75
2004-05-12 07:10:38 51°14.844 2°46.941 9.4 82 9 102120 75
2004-05-12 07:10:43 51°14.842 2°46.913 8.7 76 9 102120 75
2004-05-12 07:10:47 51°14.839 2°46.892 8 73 9 102120 75
2004-05-12 07:10:53 51°14.835 2°46.858 7.7 69 9 102120 75
2004-05-12 07:10:58 51°14.834 2°46.83 8.3 64 9 102120 75
2004-05-12 07:11:02 51°14.831 2°46.809 8.4 66 9 102120 75
2004-05-12 07:11:08 51°14.827 2°46.775 9.1 81 9.1 102110 76
2004-05-12 07:11:13 51°14.825 2°46.747 8.4 80 9.1 102110 76
2004-05-12 07:11:17 51°14.821 2°46.725 9.7 84 9.1 102120 75
2004-05-12 07:11:23 51°14.819 2°46.691 8.1   9.1 102120 75
2004-05-12 07:11:28 51°14.815 2°46.664 7.1 76 9.1 102120 75
2004-05-12 07:11:33 51°14.813 2°46.636 6.8 75 9.1 102120 75
2004-05-12 07:11:37 51°14.81 2°46.613 7.8 71 9.1 102120 75
2004-05-12 07:11:43 51°14.808 2°46.579 8 64 9.1 102120 75
2004-05-12 07:11:47 51°14.805 2°46.557 7.8 64 9.1 102120 76
2004-05-12 07:11:53 51°14.802 2°46.523 8.2 71 9.1 102120 76
2004-05-12 07:11:57 51°14.799 2°46.501 6.9 73 9.1 102130 76
2004-05-12 07:12:03 51°14.797 2°46.467 7.7 69 9.1 102130 76
2004-05-12 07:12:08 51°14.794 2°46.439 7.5 76 9.1 102120 76
2004-05-12 07:12:13 51°14.791 2°46.411 8.2 77 9.1 102120 76
2004-05-12 07:12:17 51°14.789 2°46.388 7.2 82 9.2 102130 76
2004-05-12 07:12:23 51°14.786 2°46.355 9.7 82 9.2 102130 76
2004-05-12 07:12:28 51°14.783 2°46.327 9.5 82 9.2 102120 77
2004-05-12 07:12:33 51°14.781 2°46.299 8.2 83 9.2 102120 77
2004-05-12 07:12:38 51°14.778 2°46.271 9.3 84 9.2 102120 77
2004-05-12 07:12:43 51°14.775 2°46.243 8.8 80 9.2 102120 77
2004-05-12 07:12:47 51°14.773 2°46.221 10.8 81 9.2 102120 77
2004-05-12 07:12:53 51°14.77 2°46.188 10.8 82 9.2 102120 77
2004-05-12 07:12:58 51°14.767 2°46.159 12.1 85 9.2 102120 77
2004-05-12 07:13:03 51°14.765 2°46.132 11.1 85 9.2 102120 77
2004-05-12 07:13:07 51°14.762 2°46.11 9.8 83 9.2 102120 77
2004-05-12 07:13:13 51°14.76 2°46.076 8.9 84 9.2 102120 77
2004-05-12 07:13:18 51°14.755 2°46.048 8.6 74 9.2 102120 78
2004-05-12 07:13:22 51°14.755 2°46.025 8 66 9.2 102120 78
2004-05-12 07:13:27 51°14.752 2°45.998 9.2 61 9.2 102120 78
2004-05-12 07:13:33 51°14.75 2°45.964 9.5 63 9.2 102120 78
2004-05-12 07:13:38 51°14.746 2°45.936 10.5 62 9.2 102120 78
2004-05-12 07:13:43 51°14.745 2°45.909 8.6 49 9.2 102120 78
2004-05-12 07:13:48 51°14.741 2°45.881 10.4 66 9.2 102120 78
2004-05-12 07:13:53 51°14.739 2°45.853 9.9 63 9.2 102120 78
2004-05-12 07:13:58 51°14.736 2°45.825 9.6 58 9.3 102120 78
2004-05-12 07:14:03 51°14.734 2°45.796 8.5 60 9.3 102120 78
2004-05-12 07:14:05 51°14.733 2°45.786 9 65 9.2 102130 78
2004-05-12 07:14:13 51°14.728 2°45.74 9.1 67 9.2 102130 78
2004-05-12 07:14:17 51°14.727 2°45.718 8.4 64 9.2 102120 77
2004-05-12 07:14:21 51°14.724 2°45.696 9.6 59 9.2 102120 77
2004-05-12 07:14:27 51°14.722 2°45.662 9.2 59 9.2 102120 77
2004-05-12 07:14:33 51°14.717 2°45.628 9.5 56 9.2 102120 77
2004-05-12 07:14:38 51°14.717 2°45.6 8.7 58 9.2 102130 76
2004-05-12 07:14:43 51°14.713 2°45.573 9.3 64 9.2 102130 76
2004-05-12 07:14:47 51°14.712 2°45.55 8.8 68 9.2 102130 76
2004-05-12 07:14:53 51°14.709 2°45.516 8.9 64 9.2 102130 76
2004-05-12 07:14:57 51°14.707 2°45.494 12.1 65 9.2 102130 76
2004-05-12 07:15:03 51°14.704 2°45.461 10.8 70 9.2 102130 76
2004-05-12 07:15:07 51°14.702 2°45.439 9.2 74 9.2 102130 76
2004-05-12 07:15:13 51°14.698 2°45.406 8.9 70 9.2 102130 76
2004-05-12 07:15:18 51°14.696 2°45.378 9.6 71 9.2 102120 77
2004-05-12 07:15:23 51°14.694 2°45.351 10.3 64 9.2 102120 77
2004-05-12 07:15:27 51°14.691 2°45.329 9.2 71 9.2 102110 77
2004-05-12 07:15:33 51°14.688 2°45.296 9.2 66 9.2 102110 77
2004-05-12 07:15:38 51°14.685 2°45.268 9.7 66 9.2 102120 77
2004-05-12 07:15:43 51°14.682 2°45.24 8.9 62 9.2 102120 77
2004-05-12 07:15:47 51°14.681 2°45.219 9.6 73 9.2 102120 77
2004-05-12 07:15:53 51°14.676 2°45.186 9.2 67 9.2 102120 77
2004-05-12 07:15:58 51°14.675 2°45.158 9.6 72 9.2 102120 77
2004-05-12 07:16:03 51°14.671 2°45.132 8.9 67 9.2 102120 77
2004-05-12 07:16:08 51°14.67 2°45.104 9.1 72 9.1 102130 76
2004-05-12 07:16:13 51°14.666 2°45.077 7.8 73 9.1 102130 76
2004-05-12 07:16:17 51°14.665 2°45.055 7.4 68 9.1 102130 77
2004-05-12 07:16:23 51°14.66 2°45.022 8.8 71 9.1 102130 77
2004-05-12 07:16:28 51°14.659 2°44.994 7.9 73 9.1 102120 77
2004-05-12 07:16:33 51°14.655 2°44.967 9.1 74 9.1 102120 77
2004-05-12 07:16:37 51°14.654 2°44.945 7.4 76 9.1 102130 77
2004-05-12 07:16:43 51°14.651 2°44.912 7.9 77 9.1 102130 77
2004-05-12 07:16:45 51°14.65 2°44.901 8.9 81 9.1 102120 77
2004-05-12 07:16:53 51°14.646 2°44.857 9.1 78 9.1 102120 77
2004-05-12 07:16:57 51°14.644 2°44.835 9.3 74 9.1 102130 77
2004-05-12 07:17:01 51°14.642 2°44.814 9.2 76 9.1 102130 77
2004-05-12 07:17:07 51°14.638 2°44.781 7.8 71 9.1 102120 77
2004-05-12 07:17:13 51°14.636 2°44.748 8.7 69 9.1 102120 77
2004-05-12 07:17:18 51°14.632 2°44.721 8.9 77 9.2 102130 77
2004-05-12 07:17:23 51°14.631 2°44.693 9.6 66 9.2 102130 77
2004-05-12 07:17:26 51°14.629 2°44.676 9.9 74 9.1 102120 77
2004-05-12 07:17:33 51°14.626 2°44.637 9.3 62 9.1 102120 77
2004-05-12 07:17:38 51°14.623 2°44.61 7.8 74 9.1 102130 77
2004-05-12 07:17:43 51°14.621 2°44.582 9.2 70 9.1 102130 77
2004-05-12 07:17:47 51°14.618 2°44.56 10.4 71 9.1 102120 77
2004-05-12 07:17:53 51°14.616 2°44.527 8.5 72 9.1 102120 77
2004-05-12 07:17:57 51°14.613 2°44.506 8.7 72 9.1 102130 76
2004-05-12 07:18:02 51°14.611 2°44.478 8.2 78 9.1 102130 76
2004-05-12 07:18:06 51°14.61 2°44.456 7.7 74 9.1 102130 77
2004-05-12 07:18:13 51°14.605 2°44.417 9.6 69 9.1 102130 77
2004-05-12 07:18:18 51°14.603 2°44.39 9.7 65 9.1 102130 77
2004-05-12 07:18:23 51°14.6 2°44.363 9.1 62 9.1 102130 77
2004-05-12 07:18:27 51°14.598 2°44.341 8.9 69 9.1 102130 76
2004-05-12 07:18:33 51°14.595 2°44.307 9.6 73 9.1 102130 76
2004-05-12 07:18:38 51°14.592 2°44.28 8.9 79 9.1 102130 77
2004-05-12 07:18:42 51°14.59 2°44.258 9.1 70 9.1 102130 77
2004-05-12 07:18:48 51°14.587 2°44.225 10.7 71 9.1 102130 77
2004-05-12 07:18:53 51°14.584 2°44.198 9.7 69 9.1 102130 77
2004-05-12 07:18:58 51°14.582 2°44.17 9.3 75 9.1 102120 77
2004-05-12 07:19:03 51°14.58 2°44.142 8.1 66 9.1 102120 77
2004-05-12 07:19:08 51°14.578 2°44.115 9.1 71 9.1 102130 77
2004-05-12 07:19:13 51°14.574 2°44.088 10.6 67 9.1 102130 77
2004-05-12 07:19:17 51°14.574 2°44.065 8.3 71 9.1 102120 77
2004-05-12 07:19:23 51°14.57 2°44.033 9.7 60 9.1 102120 77
2004-05-12 07:19:28 51°14.57 2°44.004 9.8 63 9.1 102120 77
2004-05-12 07:19:33 51°14.566 2°43.978 10.7 65 9.1 102120 77
2004-05-12 07:19:37 51°14.564 2°43.956 10.3 63 9.1 102130 77
2004-05-12 07:19:43 51°14.561 2°43.923 10.5 65 9.1 102130 77
2004-05-12 07:19:47 51°14.559 2°43.901 11.5 64 9.1 102130 77
2004-05-12 07:19:53 51°14.556 2°43.869 10.1 66 9.1 102130 77
2004-05-12 07:19:57 51°14.555 2°43.847 10.5 57 9.1 102130 78
2004-05-12 07:20:03 51°14.552 2°43.813 11.1 64 9.1 102130 78
2004-05-12 07:20:07 51°14.551 2°43.791 9.8 63 9.1 102130 77
2004-05-12 07:20:13 51°14.547 2°43.759 9.5 63 9.1 102130 77
2004-05-12 07:20:17 51°14.545 2°43.737 10.2 60 9.1 102130 76
2004-05-12 07:20:23 51°14.542 2°43.704 11.6 65 9.1 102130 76
2004-05-12 07:20:27 51°14.541 2°43.682 10.2 61 9 102120 76
2004-05-12 07:20:33 51°14.538 2°43.648 10.7 64 9 102120 76
2004-05-12 07:20:37 51°14.535 2°43.626 10.3 64 9 102130 76
2004-05-12 07:20:43 51°14.534 2°43.593 10 54 9 102130 76
2004-05-12 07:20:47 51°14.53 2°43.572 11.8 63 9 102130 76
2004-05-12 07:20:53 51°14.528 2°43.538 10.3 69 9 102130 76
2004-05-12 07:20:57 51°14.525 2°43.517 10.2 67 9 102130 77
2004-05-12 07:21:03 51°14.521 2°43.484 10.3 65 9 102130 77
2004-05-12 07:21:07 51°14.52 2°43.462 11.1 59 9 102130 77
2004-05-12 07:21:13 51°14.516 2°43.429 12.5 63 9 102130 77
2004-05-12 07:21:18 51°14.514 2°43.402 10.1 79 9.1 102120 77
2004-05-12 07:21:23 51°14.512 2°43.374 10.1 75 9.1 102120 77
2004-05-12 07:21:27 51°14.509 2°43.352 11.2 68 9.1 102120 77
2004-05-12 07:21:33 51°14.507 2°43.319 10.3 68 9.1 102120 77
2004-05-12 07:21:38 51°14.504 2°43.291 10.2 66 9.1 102120 77
2004-05-12 07:21:43 51°14.502 2°43.263 12 64 9.1 102120 77
2004-05-12 07:21:47 51°14.5 2°43.241 9.4 71 9.1 102120 77
2004-05-12 07:21:53 51°14.497 2°43.208 10 75 9.1 102120 77
2004-05-12 07:21:57 51°14.495 2°43.186 10.1 61 9.1 102120 77
2004-05-12 07:22:02 51°14.493 2°43.158 10.4 61 9.1 102120 77
2004-05-12 07:22:07 51°14.489 2°43.13 11.9 68 9.1 102130 77
2004-05-12 07:22:13 51°14.487 2°43.097 12.3 55 9.1 102130 77
2004-05-12 07:22:17 51°14.485 2°43.075 13.5 62 9.1 102120 77
2004-05-12 07:22:23 51°14.482 2°43.042 11 78 9.1 102120 77
2004-05-12 07:22:27 51°14.48 2°43.02 10.8 73 9.1 102130 77
2004-05-12 07:22:33 51°14.477 2°42.987 11.6 77 9.1 102130 77
2004-05-12 07:22:38 51°14.474 2°42.96 9.9 70 9.1 102120 77
2004-05-12 07:22:43 51°14.472 2°42.932 11.3 74 9.1 102120 77
2004-05-12 07:22:47 51°14.469 2°42.911 11.4 71 9.1 102110 77
2004-05-12 07:22:53 51°14.467 2°42.877 11.7 69 9.1 102110 77
2004-05-12 07:22:58 51°14.464 2°42.85 11.9 66 9.1 102110 77
2004-05-12 07:23:02 51°14.462 2°42.828 11 65 9.1 102110 77
2004-05-12 07:23:07 51°14.46 2°42.8 11.5 66 9.1 102120 77
2004-05-12 07:23:13 51°14.456 2°42.767 10.7 73 9.1 102120 77
2004-05-12 07:23:17 51°14.454 2°42.745 11.8 68 9.1 102120 77
2004-05-12 07:23:23 51°14.451 2°42.712 11.1 77 9.1 102120 77
2004-05-12 07:23:27 51°14.448 2°42.69 10.9 75 9 102120 76
2004-05-12 07:23:33 51°14.446 2°42.657 10.5 69 9 102120 76
2004-05-12 07:23:37 51°14.444 2°42.634 9 76 9 102120 76
2004-05-12 07:23:43 51°14.441 2°42.601 11 67 9 102120 76
2004-05-12 07:23:48 51°14.44 2°42.573 11.2 67 9 102120 76
2004-05-12 07:23:53 51°14.436 2°42.546 12.1 61 9 102120 76
2004-05-12 07:23:58 51°14.434 2°42.518 11.2 70 9 102120 76
2004-05-12 07:24:03 51°14.432 2°42.49 10.9 68 9 102120 76
2004-05-12 07:24:05 51°14.43 2°42.479 8.8 69 9 102120 76
2004-05-12 07:24:13 51°14.427 2°42.435 10 70 9 102120 76
2004-05-12 07:24:17 51°14.425 2°42.412 11.5 68 9 102130 76
2004-05-12 07:24:23 51°14.422 2°42.379 11.7 63 9 102130 76
2004-05-12 07:24:26 51°14.42 2°42.362 10.5 70 9 102120 76
2004-05-12 07:24:33 51°14.417 2°42.323 9.5 71 9 102120 76
2004-05-12 07:24:38 51°14.414 2°42.294 9.5 77 9 102130 76
2004-05-12 07:24:43 51°14.414 2°42.267 11 72 9 102130 76
2004-05-12 07:24:47 51°14.41 2°42.245 9.7 77 9 102130 76
2004-05-12 07:24:53 51°14.408 2°42.211 9.1 76 9 102130 76
2004-05-12 07:24:58 51°14.405 2°42.184 9.5 67 9.1 102120 77
2004-05-12 07:25:03 51°14.403 2°42.156 10.3 71 9.1 102120 77
2004-05-12 07:25:07 51°14.4 2°42.134 11.3 77 9 102120 76
2004-05-12 07:25:13 51°14.397 2°42.1 10.2 70 9 102120 76
2004-05-12 07:25:17 51°14.396 2°42.078 9.8 76 9.1 102120 76
2004-05-12 07:25:23 51°14.392 2°42.045 11.4 80 9.1 102120 76
2004-05-12 07:25:28 51°14.392 2°42.017 10.7 67 9.1 102110 77
2004-05-12 07:25:31 51°14.388 2°42.001 10.9 76 9.1 102110 77
2004-05-12 07:25:37 51°14.386 2°41.967 10.4 68 9.1 102120 77
2004-05-12 07:25:43 51°14.381 2°41.935 10 79 9.1 102120 77
2004-05-12 07:25:47 51°14.381 2°41.913 10.9 66 9.1 102120 76
2004-05-12 07:25:53 51°14.376 2°41.879 11 75 9.1 102120 76
2004-05-12 07:25:58 51°14.375 2°41.852 8.7 70 9.1 102140 77
2004-05-12 07:26:03 51°14.371 2°41.825 8.6 79 9.1 102140 77
2004-05-12 07:26:07 51°14.37 2°41.803 9.6 73 9.1 102120 76
2004-05-12 07:26:13 51°14.366 2°41.77 10.7 82 9.1 102120 76
2004-05-12 07:26:18 51°14.363 2°41.742 10.2 81 9.1 102120 76
2004-05-12 07:26:23 51°14.361 2°41.714 9.3 71 9.1 102120 76
2004-05-12 07:26:27 51°14.359 2°41.692 10.5 80 9.1 102130 76
2004-05-12 07:26:33 51°14.355 2°41.659 11.2 80 9.1 102130 76
2004-05-12 07:26:37 51°14.354 2°41.636 8.6 78 9.1 102130 75
2004-05-12 07:26:43 51°14.35 2°41.603 7.9 77 9.1 102130 75
2004-05-12 07:26:47 51°14.349 2°41.581 9.2 71 9 102140 76
2004-05-12 07:26:53 51°14.345 2°41.547 10.5 82 9 102140 76
2004-05-12 07:26:57 51°14.345 2°41.525 8.5 80 9 102130 75
2004-05-12 07:27:02 51°14.34 2°41.497 10.2 81 9 102130 75
2004-05-12 07:27:07 51°14.339 2°41.469 8 83 9 102130 76
2004-05-12 07:27:13 51°14.336 2°41.436 7.1 76 9 102130 76
2004-05-12 07:27:17 51°14.334 2°41.413 8.8 79 9.1 102130 76
2004-05-12 07:27:22 51°14.332 2°41.386 7.1 78 9.1 102130 76
2004-05-12 07:27:27 51°14.328 2°41.358 7.4 74 9.1 102140 76
2004-05-12 07:27:33 51°14.327 2°41.324 8.6 81 9.1 102140 76
2004-05-12 07:27:38 51°14.322 2°41.297 7.2 79 9 102140 76
2004-05-12 07:27:42 51°14.321 2°41.274 8.1 70 9 102140 76
2004-05-12 07:27:47 51°14.319 2°41.246 7.1 76 9 102140 75
2004-05-12 07:27:53 51°14.317 2°41.212 7.3 64 9 102140 75
2004-05-12 07:27:58 51°14.315 2°41.184 7.6 72 9.1 102140 76
2004-05-12 07:28:03 51°14.314 2°41.156 7.1 78 9.1 102140 76
2004-05-12 07:28:07 51°14.311 2°41.134 6.5 76 9.1 102140 76
2004-05-12 07:28:13 51°14.31 2°41.1 7.6 77 9.1 102140 76
2004-05-12 07:28:17 51°14.307 2°41.078 8 74 9.1 102140 76
2004-05-12 07:28:22 51°14.306 2°41.05 6.6 76 9.1 102140 76
2004-05-12 07:28:27 51°14.302 2°41.023 8.2 70 9.1 102150 76
2004-05-12 07:28:33 51°14.301 2°40.988 8.8 65 9.1 102150 76
2004-05-12 07:28:35 51°14.3 2°40.977 8.4 78 9 102150 76
2004-05-12 07:28:43 51°14.296 2°40.933 8.7 71 9 102150 76
2004-05-12 07:28:48 51°14.295 2°40.905 9 81 9.1 102140 76
2004-05-12 07:28:53 51°14.292 2°40.877 7.3 73 9.1 102140 76
2004-05-12 07:28:58 51°14.291 2°40.849 8.5 79 9.1 102140 76
2004-05-12 07:29:02 51°14.289 2°40.827 7.6 67 9.1 102140 76
2004-05-12 07:29:07 51°14.287 2°40.798 6.3 77 9.1 102140 76
2004-05-12 07:29:13 51°14.285 2°40.764 6.4 69 9.1 102140 76
2004-05-12 07:29:17 51°14.283 2°40.742 8.5 77 9.1 102140 76
2004-05-12 07:29:21 51°14.283 2°40.719 6.2 71 9.1 102140 76
2004-05-12 07:29:26 51°14.28 2°40.692 6 72 9 102150 75
2004-05-12 07:29:33 51°14.277 2°40.652 7.6 71 9 102150 75
2004-05-12 07:29:37 51°14.277 2°40.629 6.6 77 9 102150 75
2004-05-12 07:29:43 51°14.274 2°40.595 6.9 66 9 102150 75
2004-05-12 07:29:45 51°14.273 2°40.584 7.9 83 9 102140 75
2004-05-12 07:29:53 51°14.271 2°40.54 7.2 81 9 102140 75
2004-05-12 07:29:57 51°14.268 2°40.517 9.4 86 9 102150 75
2004-05-12 07:30:02 51°14.268 2°40.489 6.1 80 9 102150 75
2004-05-12 07:30:06 51°14.265 2°40.467 8 78 9 102150 75
2004-05-12 07:30:13 51°14.262 2°40.427 8.5 85 9 102150 75
2004-05-12 07:30:17 51°14.262 2°40.404 7.3 81 9 102150 76
2004-05-12 07:30:23 51°14.259 2°40.371 8.4 86 9 102150 76
2004-05-12 07:30:27 51°14.257 2°40.348 7.7 78 9 102150 75
2004-05-12 07:30:33 51°14.254 2°40.314 7.2 79 9 102150 75
2004-05-12 07:30:38 51°14.254 2°40.286 7.7 68 9 102140 75
2004-05-12 07:30:43 51°14.251 2°40.259 8.3 60 9 102140 75
2004-05-12 07:30:47 51°14.249 2°40.236 7.9 68 9.1 102140 76
2004-05-12 07:30:53 51°14.247 2°40.203 8.3 61 9.1 102140 76
2004-05-12 07:30:57 51°14.245 2°40.18 9.3 57 9.1 102140 76
2004-05-12 07:31:03 51°14.243 2°40.147 9.3 61 9.1 102140 76
2004-05-12 07:31:07 51°14.242 2°40.125 10.1 61 9.1 102150 77
2004-05-12 07:31:13 51°14.239 2°40.092 9.7 53 9.1 102150 77
2004-05-12 07:31:17 51°14.238 2°40.069 9.9 55 9.1 102150 76
2004-05-12 07:31:23 51°14.235 2°40.035 10.4 57 9.1 102150 76
2004-05-12 07:31:27 51°14.234 2°40.013 9.7 50 9.1 102140 76
2004-05-12 07:31:33 51°14.232 2°39.979 10.3 55 9.1 102140 76
2004-05-12 07:31:38 51°14.23 2°39.951 10.1 60 9.1 102140 76
2004-05-12 07:31:43 51°14.228 2°39.923 9.3 48 9.1 102140 76
2004-05-12 07:31:46 51°14.226 2°39.906 11 63 9.1 102140 76
2004-05-12 07:31:53 51°14.224 2°39.867 10.3 65 9.1 102140 76
2004-05-12 07:31:57 51°14.222 2°39.845 9.6 60 9 102140 76
2004-05-12 07:32:03 51°14.219 2°39.811 10 62 9 102140 76
2004-05-12 07:32:07 51°14.218 2°39.788 10.6 58 9.1 102140 77
2004-05-12 07:32:13 51°14.215 2°39.754 10.5 64 9.1 102140 77
2004-05-12 07:32:17 51°14.214 2°39.732 9.4 67 9 102140 76
2004-05-12 07:32:23 51°14.211 2°39.698 10.8 61 9 102140 76
2004-05-12 07:32:28 51°14.211 2°39.669 10.1 57 9 102140 76
2004-05-12 07:32:33 51°14.209 2°39.641 10.8 61 9 102140 76
2004-05-12 07:32:37 51°14.208 2°39.618 9.4 63 9 102140 76
2004-05-12 07:32:43 51°14.206 2°39.585 9.2 61 9 102140 76
2004-05-12 07:32:45 51°14.204 2°39.574 9.7 63 9 102140 76
2004-05-12 07:32:53 51°14.202 2°39.528 10.6 63 9 102140 76
2004-05-12 07:32:57 51°14.201 2°39.505 10.5 58 9 102140 76
2004-05-12 07:33:01 51°14.199 2°39.482 10.4 64 9 102140 76
2004-05-12 07:33:07 51°14.198 2°39.449 9.8 64 9 102140 76
2004-05-12 07:33:13 51°14.194 2°39.415 9.9 69 9 102140 76
2004-05-12 07:33:17 51°14.194 2°39.392 9.3 61 9 102140 76
2004-05-12 07:33:23 51°14.19 2°39.359 8.7   9 102140 76
2004-05-12 07:33:28 51°14.186 2°39.331 8.2 71 9 102140 76
2004-05-12 07:33:33 51°14.184 2°39.304 7.2 70 9 102140 76
2004-05-12 07:33:38 51°14.179 2°39.276 7.8 72 9 102140 76
2004-05-12 07:33:43 51°14.178 2°39.248 7.6 69 9 102140 76
2004-05-12 07:33:47 51°14.173 2°39.226 9.2 65 9 102140 75
2004-05-12 07:33:53 51°14.171 2°39.192 7.5 68 9 102140 75
2004-05-12 07:33:58 51°14.167 2°39.165 7.9 64 9 102150 75
2004-05-12 07:34:03 51°14.164 2°39.137 7.6 69 9 102150 75
2004-05-12 07:34:07 51°14.161 2°39.115 7.5 75 9 102150 76
2004-05-12 07:34:13 51°14.158 2°39.081 6.7 75 9 102150 76
2004-05-12 07:34:17 51°14.155 2°39.059 7.5 72 9 102150 76
2004-05-12 07:34:23 51°14.151 2°39.026 7.2 70 9 102150 76
2004-05-12 07:34:27 51°14.149 2°39.003 7.5 72 9 102150 75
2004-05-12 07:34:33 51°14.146 2°38.969 8.3 66 9 102150 75
2004-05-12 07:34:37 51°14.144 2°38.946 7.8 67 9 102150 76
2004-05-12 07:34:43 51°14.141 2°38.912 8.7 60 9 102150 76
2004-05-12 07:34:48 51°14.138 2°38.884 7.6 68 9 102150 76
2004-05-12 07:34:53 51°14.135 2°38.856 7.2 72 9 102150 76
2004-05-12 07:34:58 51°14.133 2°38.828 6.5 73 9 102150 76
2004-05-12 07:35:02 51°14.13 2°38.806 6.4 71 9 102150 76
2004-05-12 07:35:05 51°14.128 2°38.789 8.8 67 9 102150 76
2004-05-12 07:35:13 51°14.123 2°38.744 8.9 66 9 102150 76
2004-05-12 07:35:17 51°14.121 2°38.721 8.6 62 9 102160 76
2004-05-12 07:35:22 51°14.117 2°38.694 9 71 9 102160 76
2004-05-12 07:35:27 51°14.115 2°38.666 8 70 9 102150 76
2004-05-12 07:35:33 51°14.11 2°38.633 10.3 75 9 102150 76
2004-05-12 07:35:37 51°14.108 2°38.611 9.7 80 9 102150 76
2004-05-12 07:35:42 51°14.104 2°38.583 9.6 80 9 102150 76
2004-05-12 07:35:47 51°14.1 2°38.556 8.1 76 9.1 102150 77
2004-05-12 07:35:53 51°14.095 2°38.522 9.9 79 9.1 102150 77
2004-05-12 07:35:57 51°14.093 2°38.501 9.4 64 9 102140 77
2004-05-12 07:36:03 51°14.086 2°38.468 10 72 9 102140 77
2004-05-12 07:36:05 51°14.085 2°38.456 9.4 77 9.1 102140 76
2004-05-12 07:36:13 51°14.077 2°38.413 9.8 74 9.1 102140 76
2004-05-12 07:36:18 51°14.074 2°38.385 9.4 70 9.1 102160 77
2004-05-12 07:36:23 51°14.069 2°38.357 10.8 76 9.1 102160 77
2004-05-12 07:36:27 51°14.066 2°38.335 8.6 76 9.1 102140 76
2004-05-12 07:36:33 51°14.061 2°38.302 10.1 78 9.1 102140 76
2004-05-12 07:36:38 51°14.055 2°38.275 10.5 77 9.1 102140 76
2004-05-12 07:36:43 51°14.048 2°38.249 8.1 75 9.1 102140 76
2004-05-12 07:36:48 51°14.043 2°38.222 9.2 76 9 102140 76
2004-05-12 07:36:53 51°14.035 2°38.197 10.8 81 9 102140 76
2004-05-12 07:36:58 51°14.029 2°38.17 7.4 74 9 102140 76
2004-05-12 07:37:03 51°14.022 2°38.144 11.7 89 9 102140 76
2004-05-12 07:37:08 51°14.016 2°38.117 10.4 86 9 102140 75
2004-05-12 07:37:13 51°14.009 2°38.092 11.2 83 9 102140 75
2004-05-12 07:37:17 51°14.004 2°38.07 10.8 86 9 102150 75
2004-05-12 07:37:23 51°13.995 2°38.04 11.4 85 9 102150 75
2004-05-12 07:37:27 51°13.991 2°38.019 10.2 82 9 102140 76
2004-05-12 07:37:33 51°13.981 2°37.989 12.9 91 9 102140 76
2004-05-12 07:37:38 51°13.977 2°37.962 7.6 80 9 102150 76
2004-05-12 07:37:42 51°13.968 2°37.943 10.2 91 9 102150 76
2004-05-12 07:37:45 51°13.966 2°37.926 7.9 83 9 102140 75
2004-05-12 07:37:53 51°13.954 2°37.886 10.7 86 9 102140 75
2004-05-12 07:37:57 51°13.95 2°37.865 7.8 90 9 102150 75
2004-05-12 07:38:03 51°13.94 2°37.835 9.6 93 9 102150 75
2004-05-12 07:38:06 51°13.936 2°37.82 9.3 94 9 102150 76
2004-05-12 07:38:13 51°13.922 2°37.786 9.6 93 9 102150 76
2004-05-12 07:38:18 51°13.914 2°37.761 8.2 99 9 102150 76
2004-05-12 07:38:23 51°13.905 2°37.737 8.6 99 9 102150 76
2004-05-12 07:38:25 51°13.901 2°37.727 8.2 83 9 102150 76
2004-05-12 07:38:33 51°13.886 2°37.689 7 82 9 102150 76
2004-05-12 07:38:38 51°13.876 2°37.665 8.7 82 9 102150 76
2004-05-12 07:38:43 51°13.866 2°37.641 8.4 93 9 102150 76
2004-05-12 07:38:47 51°13.859 2°37.622 8.1 95 9 102150 75
2004-05-12 07:38:53 51°13.848 2°37.593 7.4 93 9 102150 75
2004-05-12 07:38:57 51°13.839 2°37.575 8.1 93 9 102160 76
2004-05-12 07:39:03 51°13.829 2°37.545 8.7 88 9 102160 76
2004-05-12 07:39:08 51°13.819 2°37.522 7 84 9.1 102150 76
2004-05-12 07:39:13 51°13.811 2°37.497 7.7 82 9.1 102150 76
2004-05-12 07:39:18 51°13.802 2°37.473 6.6 75 9 102160 76
2004-05-12 07:39:22 51°13.795 2°37.454 7.6 80 9 102160 76
2004-05-12 07:39:25 51°13.79 2°37.439 8.5 81 9.1 102150 76
2004-05-12 07:39:33 51°13.778 2°37.398 8.5 82 9.1 102150 76
2004-05-12 07:39:37 51°13.772 2°37.377 10.3 83 9.1 102160 76
2004-05-12 07:39:43 51°13.762 2°37.347 11.4 85 9.1 102160 76
2004-05-12 07:39:45 51°13.76 2°37.337 9.1 81 9.1 102160 76
2004-05-12 07:39:53 51°13.749 2°37.296 10.1 86 9.1 102160 76
2004-05-12 07:39:58 51°13.741 2°37.27 10.8 91 9.1 102150 76
2004-05-12 07:40:03 51°13.736 2°37.244 8.5 84 9.1 102150 76
2004-05-12 07:40:07 51°13.729 2°37.225 8.7 81 9.1 102150 76
2004-05-12 07:40:13 51°13.721 2°37.193 7.3 77 9.1 102150 76
2004-05-12 07:40:17 51°13.716 2°37.172 8.3 89 9 102150 75
2004-05-12 07:40:23 51°13.707 2°37.142 9.2 85 9 102150 75
2004-05-12 07:40:27 51°13.701 2°37.121 8.5 74 9 102150 75
2004-05-12 07:40:33 51°13.693 2°37.089 9.7 84 9 102150 75
2004-05-12 07:40:38 51°13.686 2°37.063 9.6 84 9.1 102150 76
2004-05-12 07:40:43 51°13.679 2°37.038 9 88 9.1 102150 76
2004-05-12 07:40:48 51°13.672 2°37.011 9.8 80 9.1 102150 76
2004-05-12 07:40:53 51°13.666 2°36.983 7.4 79 9.1 102150 76
2004-05-12 07:40:58 51°13.659 2°36.957 8.2 79 9.1 102150 75
2004-05-12 07:41:03 51°13.652 2°36.931 7.4 80 9.1 102150 75
2004-05-12 07:41:06 51°13.649 2°36.915 9.3 84 9.1 102150 76
2004-05-12 07:41:13 51°13.639 2°36.879 9.6 82 9.1 102150 76
2004-05-12 07:41:17 51°13.633 2°36.859 9.4 83 9 102150 75
2004-05-12 07:41:23 51°13.626 2°36.827 10.1 88 9 102150 75
2004-05-12 07:41:27 51°13.619 2°36.808 9.6 87 9 102150 75
2004-05-12 07:41:31 51°13.613 2°36.787 10.2 88 9 102150 75
2004-05-12 07:41:37 51°13.606 2°36.756 8.7 86 9 102150 74
2004-05-12 07:41:43 51°13.597 2°36.725 8.5 81 9 102150 74
2004-05-12 07:41:47 51°13.592 2°36.705 8.7 84 9 102150 74
2004-05-12 07:41:53 51°13.583 2°36.673 7.6 82 9 102150 74
2004-05-12 07:41:58 51°13.578 2°36.646 7.9 81 9 102150 74
2004-05-12 07:42:03 51°13.57 2°36.62 8.3 83 9 102150 74
2004-05-12 07:42:07 51°13.565 2°36.599 7.2 80 9 102160 74
2004-05-12 07:42:13 51°13.558 2°36.567 6.3 75 9 102160 74
2004-05-12 07:42:17 51°13.552 2°36.546 8.1 75 9 102160 75
2004-05-12 07:42:23 51°13.546 2°36.513 7.3 73 9 102160 75
2004-05-12 07:42:27 51°13.541 2°36.492 8.2 74 9 102160 75
2004-05-12 07:42:33 51°13.534 2°36.46 7.6 71 9 102160 75
2004-05-12 07:42:37 51°13.529 2°36.439 7.9 73 9 102150 74
2004-05-12 07:42:43 51°13.522 2°36.406 7.5 69 9 102150 74
2004-05-12 07:42:48 51°13.515 2°36.38 8.1 81 9 102150 75
2004-05-12 07:42:53 51°13.51 2°36.354 6.7 78 9 102150 75
2004-05-12 07:42:58 51°13.502 2°36.328 7.9 80 9 102150 73
2004-05-12 07:43:03 51°13.497 2°36.301 6.4 82 9 102150 73
2004-05-12 07:43:07 51°13.491 2°36.281 8.3 82 9 102150 73
2004-05-12 07:43:13 51°13.484 2°36.249 6.3 76 9 102150 73
2004-05-12 07:43:18 51°13.478 2°36.222 6.4 77 9 102150 74
2004-05-12 07:43:23 51°13.471 2°36.197 7.7 83 9 102150 74
2004-05-12 07:43:27 51°13.466 2°36.176 5.6 79 9 102150 74
2004-05-12 07:43:33 51°13.458 2°36.145 7.3 81 9 102150 74
2004-05-12 07:43:38 51°13.45 2°36.119 6.1 84 9 102160 74
2004-05-12 07:43:43 51°13.445 2°36.093 6.8 87 9 102160 74
2004-05-12 07:43:47 51°13.439 2°36.072 5.2 79 9 102160 74
2004-05-12 07:43:53 51°13.432 2°36.039 5.7 74 9 102160 74
2004-05-12 07:43:57 51°13.426 2°36.019 8.2 85 9 102160 74
2004-05-12 07:44:03 51°13.419 2°35.987 4.6 73 9 102160 74
2004-05-12 07:44:08 51°13.412 2°35.96 6.6 83 9 102160 74
2004-05-12 07:44:13 51°13.407 2°35.933 6.4 82 9 102160 74
2004-05-12 07:44:18 51°13.401 2°35.906 6.4 77 9 102160 74
2004-05-12 07:44:22 51°13.396 2°35.885 6.2 76 9 102160 74
2004-05-12 07:44:28 51°13.389 2°35.851 5.8 75 9 102160 74
2004-05-12 07:44:33 51°13.383 2°35.825 6 83 9 102160 74
2004-05-12 07:44:37 51°13.378 2°35.804 5.7 79 9 102150 74
2004-05-12 07:44:43 51°13.37 2°35.77 6.3 78 9 102150 74
2004-05-12 07:44:45 51°13.368 2°35.759 5.5 77 9 102160 74
2004-05-12 07:44:53 51°13.359 2°35.716 7 82 9 102160 74
2004-05-12 07:44:57 51°13.354 2°35.694 5.4 80 9 102160 74
2004-05-12 07:45:01 51°13.348 2°35.673 6.3 68 9 102160 74
2004-05-12 07:45:07 51°13.341 2°35.64 5.7 82 9 102160 74
2004-05-12 07:45:13 51°13.332 2°35.608 6.7 81 9 102160 74
2004-05-12 07:45:18 51°13.326 2°35.58 6 77 9 102160 74
2004-05-12 07:45:23 51°13.318 2°35.555 6.6 81 9 102160 74
2004-05-12 07:45:27 51°13.313 2°35.532 5 77 9 102160 74
2004-05-12 07:45:33 51°13.306 2°35.5 6.2 81 9 102160 74
2004-05-12 07:45:37 51°13.3 2°35.48 7.3 85 9 102160 74
2004-05-12 07:45:43 51°13.293 2°35.448 4.6 66 9 102160 74
2004-05-12 07:45:48 51°13.284 2°35.423 6.4 65 9 102160 74
2004-05-12 07:45:53 51°13.278 2°35.396 6.2 73 9 102160 74
2004-05-12 07:45:58 51°13.271 2°35.37 5.6 76 9 102160 74
2004-05-12 07:46:03 51°13.263 2°35.344 6.4 79 9 102160 74
2004-05-12 07:46:07 51°13.258 2°35.324 5.4 74 9 102150 75
2004-05-12 07:46:13 51°13.249 2°35.292 6.3 76 9 102150 75
2004-05-12 07:46:18 51°13.241 2°35.267 5.9 78 9 102150 75
2004-05-12 07:46:23 51°13.235 2°35.241 6.1 77 9 102150 75
2004-05-12 07:46:27 51°13.229 2°35.221 6.2 66 9 102160 74
2004-05-12 07:46:33 51°13.221 2°35.189 6 73 9 102160 74
2004-05-12 07:46:38 51°13.214 2°35.163 5.8 63 9 102150 74
2004-05-12 07:46:43 51°13.207 2°35.136 6.4 75 9 102150 74
2004-05-12 07:46:48 51°13.201 2°35.11 6.8 65 9 102150 75
2004-05-12 07:46:53 51°13.193 2°35.084 7 79 9 102150 75
2004-05-12 07:46:58 51°13.187 2°35.057 6 77 9 102160 74
2004-05-12 07:47:03 51°13.18 2°35.031 6.5 84 9 102160 74
2004-05-12 07:47:08 51°13.173 2°35.004 5.5 78 9 102160 75
2004-05-12 07:47:13 51°13.166 2°34.977 5.8 77 9 102160 75
2004-05-12 07:47:18 51°13.159 2°34.95 6.4 58 9 102150 75
2004-05-12 07:47:22 51°13.153 2°34.929 7.4 65 9 102150 75
2004-05-12 07:47:28 51°13.146 2°34.897 7.2 67 9 102160 74
2004-05-12 07:47:33 51°13.139 2°34.871 7.1 72 9 102160 74
2004-05-12 07:47:37 51°13.134 2°34.848 6.9 62 9 102160 75
2004-05-12 07:47:43 51°13.127 2°34.815 6.5 73 9 102160 75
2004-05-12 07:47:47 51°13.121 2°34.794 6.1 70 9 102160 75
2004-05-12 07:47:53 51°13.113 2°34.762 7.3 80 9 102160 75
2004-05-12 07:47:58 51°13.107 2°34.735 5 71 9 102160 75
2004-05-12 07:48:02 51°13.101 2°34.713 7.2 79 9 102160 75
2004-05-12 07:48:07 51°13.094 2°34.685 6.5 77 9 102160 75
2004-05-12 07:48:13 51°13.086 2°34.653 5.9 69 9 102160 75
2004-05-12 07:48:17 51°13.081 2°34.632 6.7 83 9 102150 75
2004-05-12 07:48:23 51°13.073 2°34.599 6 79 9 102150 75
2004-05-12 07:48:27 51°13.067 2°34.577 6.7 74 9 102160 75
2004-05-12 07:48:33 51°13.06 2°34.544 5.5 66 9 102160 75
2004-05-12 07:48:38 51°13.052 2°34.519 6.7 69 9 102150 75
2004-05-12 07:48:43 51°13.046 2°34.492 6.7 63 9 102150 75
2004-05-12 07:48:47 51°13.04 2°34.471 5.8 78 9 102160 75
2004-05-12 07:48:53 51°13.031 2°34.438 5.9 72 9 102160 75
2004-05-12 07:48:57 51°13.027 2°34.417 6.2 78 9 102150 75
2004-05-12 07:49:03 51°13.017 2°34.387 8.7 87 9 102150 75
2004-05-12 07:49:08 51°13.012 2°34.359 5.9 84 9 102160 76
2004-05-12 07:49:13 51°13.003 2°34.334 7.2 80 9 102160 76
2004-05-12 07:49:18 51°12.998 2°34.306 6.5 81 9 102160 76
2004-05-12 07:49:23 51°12.991 2°34.281 7.3 84 9 102160 76
2004-05-12 07:49:26 51°12.988 2°34.265 6.1 88 9 102160 76
2004-05-12 07:49:33 51°12.979 2°34.228 6.5 82 9 102160 76
2004-05-12 07:49:37 51°12.973 2°34.206 5.7 80 9 102160 76
2004-05-12 07:49:43 51°12.965 2°34.174 5.9 87 9 102160 76
2004-05-12 07:49:48 51°12.958 2°34.148 4.3 73 9 102160 76
2004-05-12 07:49:53 51°12.952 2°34.121 4.6 64 9 102160 76
2004-05-12 07:49:57 51°12.946 2°34.1 5.1 67 9 102160 76
2004-05-12 07:50:03 51°12.939 2°34.067 5.7 70 9 102160 76
2004-05-12 07:50:08 51°12.931 2°34.041 7 63 9 102160 76
2004-05-12 07:50:13 51°12.926 2°34.013 7.2 79 9 102160 76
2004-05-12 07:50:18 51°12.918 2°33.987 4.8 68 9 102160 76
2004-05-12 07:50:23 51°12.912 2°33.959 6 74 9 102160 76
2004-05-12 07:50:25 51°12.91 2°33.947 5.8 65 9 102160 76
2004-05-12 07:50:33 51°12.899 2°33.905 6.9 77 9 102160 76
2004-05-12 07:50:37 51°12.893 2°33.884 5.9 76 9 102160 76
2004-05-12 07:50:43 51°12.886 2°33.851 6.4 78 9 102160 76
2004-05-12 07:50:47 51°12.88 2°33.83 5.4 76 9 102160 77
2004-05-12 07:50:53 51°12.874 2°33.796 6 68 9 102160 77
2004-05-12 07:50:56 51°12.869 2°33.781 6.8 73 9.1 102160 76
2004-05-12 07:51:03 51°12.86 2°33.743 7.1 71 9.1 102160 76
2004-05-12 07:51:05 51°12.857 2°33.733 7.1 82 9 102160 76
2004-05-12 07:51:13 51°12.846 2°33.691 6.3 78 9 102160 76
2004-05-12 07:51:17 51°12.84 2°33.67 8.5 80 9.1 102160 77
2004-05-12 07:51:23 51°12.833 2°33.637 6.7 70 9.1 102160 77
2004-05-12 07:51:28 51°12.826 2°33.611 6.7 74 9.1 102160 77
2004-05-12 07:51:33 51°12.819 2°33.584 7.7 71 9.1 102160 77
2004-05-12 07:51:37 51°12.814 2°33.562 6.4 75 9.1 102160 78
2004-05-12 07:51:43 51°12.807 2°33.529 7.7 63 9.1 102160 78
2004-05-12 07:51:45 51°12.804 2°33.519 8.1 69 9.1 102160 78
2004-05-12 07:51:53 51°12.793 2°33.477 7.7 59 9.1 102160 78
2004-05-12 07:51:57 51°12.787 2°33.456 7.5 69 9.1 102160 78
2004-05-12 07:52:01 51°12.781 2°33.434 8 69 9.1 102160 78
2004-05-12 07:52:07 51°12.774 2°33.401 7.7 69 9.1 102160 77
2004-05-12 07:52:13 51°12.765 2°33.37 9.7 78 9.1 102160 77
2004-05-12 07:52:18 51°12.759 2°33.343 7.3 76 9.1 102160 77
2004-05-12 07:52:23 51°12.751 2°33.317 7.7 75 9.1 102160 77
2004-05-12 07:52:27 51°12.747 2°33.295 7.9 78 9.1 102160 77
2004-05-12 07:52:33 51°12.738 2°33.264 8.4 77 9.1 102160 77
2004-05-12 07:52:37 51°12.733 2°33.243 8.1 80 9.1 102150 77
2004-05-12 07:52:43 51°12.724 2°33.211 7 77 9.1 102150 77
2004-05-12 07:52:48 51°12.717 2°33.183 8 75 9.1 102150 77
2004-05-12 07:52:53 51°12.711 2°33.156 10.5 79 9.1 102150 77
2004-05-12 07:52:58 51°12.702 2°33.131 7.7 75 9.1 102150 77
2004-05-12 07:53:03 51°12.697 2°33.104 6.4 77 9.1 102150 77
2004-05-12 07:53:07 51°12.69 2°33.083 10.2 87 9.1 102150 77
2004-05-12 07:53:13 51°12.683 2°33.05 7.2 76 9.1 102150 77
2004-05-12 07:53:18 51°12.676 2°33.023 7.9 74 9.1 102150 77
2004-05-12 07:53:23 51°12.67 2°32.996 8.4 80 9.1 102150 77
2004-05-12 07:53:27 51°12.664 2°32.975 6.8 79 9.1 102150 77
2004-05-12 07:53:33 51°12.656 2°32.942 9.2 87 9.1 102150 77
2004-05-12 07:53:38 51°12.649 2°32.916 9.7 86 9.1 102150 77
2004-05-12 07:53:43 51°12.643 2°32.889 7.3 70 9.1 102150 77
2004-05-12 07:53:48 51°12.636 2°32.863 8.3 68 9.1 102150 76
2004-05-12 07:53:53 51°12.63 2°32.835 9.5 66 9.1 102150 76
2004-05-12 07:53:58 51°12.623 2°32.809 8.7 76 9.1 102160 76
2004-05-12 07:54:03 51°12.616 2°32.784 8.1 77 9.1 102160 76
2004-05-12 07:54:08 51°12.609 2°32.757 9 75 9.1 102160 77
2004-05-12 07:54:13 51°12.602 2°32.73 9.8 82 9.1 102160 77
2004-05-12 07:54:18 51°12.595 2°32.704 6.8 74 9.1 102150 77
2004-05-12 07:54:22 51°12.589 2°32.684 8.8 79 9.1 102150 77
2004-05-12 07:54:28 51°12.581 2°32.652 7.7 73 9.1 102150 77
2004-05-12 07:54:33 51°12.575 2°32.625 9 74 9.1 102150 77
2004-05-12 07:54:37 51°12.569 2°32.604 10.2 84 9.1 102150 76
2004-05-12 07:54:42 51°12.563 2°32.577 7.6 76 9.1 102150 76
2004-05-12 07:54:47 51°12.555 2°32.552 10.3 84 9.1 102150 77
2004-05-12 07:54:53 51°12.548 2°32.519 7.7 83 9.1 102150 77
2004-05-12 07:54:57 51°12.542 2°32.498 7.8 78 9.1 102150 76
2004-05-12 07:55:03 51°12.533 2°32.468 7.2 67 9.1 102150 76
2004-05-12 07:55:07 51°12.528 2°32.445 7.6 80 9.1 102150 76
2004-05-12 07:55:13 51°12.52 2°32.414 7.6 80 9.1 102150 76
2004-05-12 07:55:17 51°12.514 2°32.393 7.2 80 9.1 102150 76
2004-05-12 07:55:23 51°12.506 2°32.361 6.9 80 9.1 102150 76
2004-05-12 07:55:27 51°12.5 2°32.34 6.3 71 9.1 102160 75
2004-05-12 07:55:33 51°12.492 2°32.309 7.4 78 9.1 102160 75
2004-05-12 07:55:37 51°12.487 2°32.287 5.8 77 9.1 102150 75
2004-05-12 07:55:43 51°12.477 2°32.253 6.5 76 9.1 102150 75